createdAt,value
2017-04-29T00:00:00.290Z,73026
2017-04-29T00:00:10.091Z,73027
2017-04-29T00:00:19.893Z,73025
2017-04-29T00:00:29.987Z,73024
2017-04-29T00:00:40.083Z,73025
2017-04-29T00:00:49.599Z,73025
2017-04-29T00:00:59.686Z,73025
2017-04-29T00:01:09.780Z,73024
2017-04-29T00:01:19.581Z,73025
2017-04-29T00:01:29.704Z,73026
2017-04-29T00:01:39.792Z,73026
2017-04-29T00:01:49.595Z,73026
2017-04-29T00:01:59.401Z,73025
2017-04-29T00:02:09.491Z,73028
2017-04-29T00:02:19.294Z,73024
2017-04-29T00:02:29.102Z,73024
2017-04-29T00:02:39.194Z,73023
2017-04-29T00:02:49.298Z,73023
2017-04-29T00:02:59.392Z,73021
2017-04-29T00:03:09.487Z,73022
2017-04-29T00:03:19.303Z,73022
2017-04-29T00:03:29.402Z,73022
2017-04-29T00:03:39.495Z,73021
2017-04-29T00:03:49.590Z,73021
2017-04-29T00:03:59.399Z,73022
2017-04-29T00:04:09.486Z,73022
2017-04-29T00:04:19.292Z,73023
2017-04-29T00:04:29.385Z,73021
2017-04-29T00:04:39.184Z,73018
2017-04-29T00:04:49.277Z,73020
2017-04-29T00:04:59.376Z,73022
2017-04-29T00:05:09.478Z,73020
2017-04-29T00:05:19.565Z,73023
2017-04-29T00:05:29.372Z,73020
2017-04-29T00:05:39.464Z,73020
2017-04-29T00:05:49.566Z,73023
2017-04-29T00:05:59.662Z,73023
2017-04-29T00:06:09.751Z,73022
2017-04-29T00:06:19.560Z,73022
2017-04-29T00:06:29.647Z,73022
2017-04-29T00:06:39.732Z,73024
2017-04-29T00:06:49.534Z,73022
2017-04-29T00:06:59.340Z,73021
2017-04-29T00:07:09.438Z,73024
2017-04-29T00:07:19.245Z,73024
2017-04-29T00:07:29.056Z,73023
2017-04-29T00:07:39.144Z,73025
2017-04-29T00:07:49.237Z,73025
2017-04-29T00:07:59.327Z,73027
2017-04-29T00:08:09.127Z,73024
2017-04-29T00:08:19.219Z,73025
2017-04-29T00:08:28.739Z,73023
2017-04-29T00:08:38.829Z,73021
2017-04-29T00:08:48.635Z,73021
2017-04-29T00:08:58.438Z,73024
2017-04-29T00:09:08.246Z,73019
2017-04-29T00:09:17.189Z,73026
2017-04-29T00:09:27.278Z,73022
2017-04-29T00:09:37.373Z,73024
2017-04-29T00:09:47.464Z,73026
2017-04-29T00:09:57.562Z,73027
2017-04-29T00:10:07.380Z,73024
2017-04-29T00:10:17.180Z,73025
2017-04-29T00:10:27.018Z,73023
2017-04-29T00:10:36.819Z,73025
2017-04-29T00:10:46.907Z,73023
2017-04-29T00:10:57.000Z,73027
2017-04-29T00:11:07.135Z,73026
2017-04-29T00:11:16.939Z,73028
2017-04-29T00:11:27.034Z,73027
2017-04-29T00:11:37.123Z,73025
2017-04-29T00:11:46.926Z,73025
2017-04-29T00:11:57.026Z,73026
2017-04-29T00:12:07.123Z,73024
2017-04-29T00:12:16.923Z,73025
2017-04-29T00:12:27.015Z,73024
2017-04-29T00:12:37.144Z,73025
2017-04-29T00:12:47.242Z,73025
2017-04-29T00:12:57.345Z,73027
2017-04-29T00:13:07.442Z,73026
2017-04-29T00:13:17.532Z,73028
2017-04-29T00:13:27.056Z,73028
2017-04-29T00:13:37.157Z,73025
2017-04-29T00:13:47.248Z,73028
2017-04-29T00:13:57.349Z,73028
2017-04-29T00:14:07.437Z,73028
2017-04-29T00:14:17.530Z,73026
2017-04-29T00:14:27.632Z,73029
2017-04-29T00:14:37.432Z,73029
2017-04-29T00:14:47.519Z,73026
2017-04-29T00:14:57.607Z,73029
2017-04-29T00:15:07.701Z,73027
2017-04-29T00:15:17.509Z,73027
2017-04-29T00:15:27.599Z,73023
2017-04-29T00:15:37.690Z,73029
2017-04-29T00:15:47.779Z,73024
2017-04-29T00:15:57.877Z,73030
2017-04-29T00:16:07.677Z,73027
2017-04-29T00:16:17.480Z,73027
2017-04-29T00:16:27.571Z,73024
2017-04-29T00:16:37.656Z,73026
2017-04-29T00:16:47.173Z,73026
2017-04-29T00:16:57.267Z,73025
2017-04-29T00:17:07.360Z,73027
2017-04-29T00:17:17.159Z,73024
2017-04-29T00:17:26.963Z,73025
2017-04-29T00:17:37.054Z,73025
2017-04-29T00:17:47.155Z,73024
2017-04-29T00:17:57.257Z,73024
2017-04-29T00:18:07.350Z,73027
2017-04-29T00:18:17.164Z,73025
2017-04-29T00:18:27.260Z,73025
2017-04-29T00:18:37.378Z,73025
2017-04-29T00:18:47.476Z,73023
2017-04-29T00:18:57.567Z,73028
2017-04-29T00:19:07.673Z,73027
2017-04-29T00:19:17.761Z,73024
2017-04-29T00:19:27.572Z,73023
2017-04-29T00:19:37.662Z,73023
2017-04-29T00:19:47.755Z,73023
2017-04-29T00:19:57.566Z,73023
2017-04-29T00:20:07.377Z,73023
2017-04-29T00:20:17.212Z,73023
2017-04-29T00:20:27.314Z,73022
2017-04-29T00:20:37.407Z,73020
2017-04-29T00:20:47.496Z,73023
2017-04-29T00:20:57.582Z,73023
2017-04-29T00:21:07.382Z,73022
2017-04-29T00:21:17.468Z,73027
2017-04-29T00:21:27.266Z,73026
2017-04-29T00:21:37.355Z,73025
2017-04-29T00:21:47.456Z,73021
2017-04-29T00:21:57.545Z,73022
2017-04-29T00:22:07.633Z,73025
2017-04-29T00:22:17.441Z,73027
2017-04-29T00:22:27.526Z,73025
2017-04-29T00:22:37.331Z,73025
2017-04-29T00:22:47.419Z,73024
2017-04-29T00:22:57.516Z,73026
2017-04-29T00:23:07.606Z,73026
2017-04-29T00:23:17.124Z,73024
2017-04-29T00:23:26.945Z,73027
2017-04-29T00:23:37.042Z,73026
2017-04-29T00:23:47.142Z,73025
2017-04-29T00:23:56.945Z,73024
2017-04-29T00:24:07.044Z,73025
2017-04-29T00:24:16.852Z,73027
2017-04-29T00:24:26.944Z,73025
2017-04-29T00:24:37.036Z,73026
2017-04-29T00:24:47.124Z,73026
2017-04-29T00:24:57.222Z,73024
2017-04-29T00:25:07.038Z,73027
2017-04-29T00:25:16.839Z,73024
2017-04-29T00:25:26.930Z,73025
2017-04-29T00:25:37.019Z,73024
2017-04-29T00:25:47.116Z,73021
2017-04-29T00:25:57.203Z,73019
2017-04-29T00:26:07.295Z,73024
2017-04-29T00:26:16.812Z,73021
2017-04-29T00:26:26.620Z,73023
2017-04-29T00:26:36.706Z,73024
2017-04-29T00:26:46.799Z,73025
2017-04-29T00:26:56.898Z,73025
2017-04-29T00:27:06.708Z,73022
2017-04-29T00:27:16.512Z,73022
2017-04-29T00:27:26.315Z,73024
2017-04-29T00:27:36.406Z,73026
2017-04-29T00:27:46.500Z,73023
2017-04-29T00:27:56.308Z,73024
2017-04-29T00:28:06.399Z,73022
2017-04-29T00:28:16.493Z,73023
2017-04-29T00:28:26.622Z,73023
2017-04-29T00:28:36.717Z,73024
2017-04-29T00:28:46.846Z,73022
2017-04-29T00:28:56.937Z,73023
2017-04-29T00:29:07.050Z,73025
2017-04-29T00:29:16.573Z,73021
2017-04-29T00:29:26.665Z,73022
2017-04-29T00:29:36.466Z,73029
2017-04-29T00:29:46.556Z,73023
2017-04-29T00:29:56.650Z,73022
2017-04-29T00:30:06.740Z,73026
2017-04-29T00:30:16.828Z,73024
2017-04-29T00:30:26.924Z,73025
2017-04-29T00:30:37.011Z,73024
2017-04-29T00:30:47.100Z,73023
2017-04-29T00:30:57.196Z,73025
2017-04-29T00:31:07.291Z,73029
2017-04-29T00:31:16.809Z,73029
2017-04-29T00:31:26.322Z,73026
2017-04-29T00:31:36.411Z,73027
2017-04-29T00:31:46.500Z,73029
2017-04-29T00:31:56.586Z,73025
2017-04-29T00:32:06.684Z,73026
2017-04-29T00:32:16.770Z,73022
2017-04-29T00:32:26.286Z,73027
2017-04-29T00:32:36.380Z,73025
2017-04-29T00:32:46.468Z,73022
2017-04-29T00:32:56.560Z,73027
2017-04-29T00:33:06.652Z,73022
2017-04-29T00:33:16.455Z,73024
2017-04-29T00:33:26.258Z,73026
2017-04-29T00:33:36.352Z,73021
2017-04-29T00:33:45.867Z,73024
2017-04-29T00:33:55.668Z,73021
2017-04-29T00:34:05.760Z,73024
2017-04-29T00:34:15.570Z,73024
2017-04-29T00:34:25.382Z,73023
2017-04-29T00:34:35.469Z,73026
2017-04-29T00:34:45.565Z,73023
2017-04-29T00:34:55.657Z,73022
2017-04-29T00:35:05.749Z,73025
2017-04-29T00:35:15.553Z,73022
2017-04-29T00:35:25.640Z,73022
2017-04-29T00:35:35.734Z,73022
2017-04-29T00:35:45.830Z,73026
2017-04-29T00:35:55.929Z,73025
2017-04-29T00:36:05.732Z,73026
2017-04-29T00:36:15.823Z,73026
2017-04-29T00:36:25.913Z,73028
2017-04-29T00:36:35.999Z,73025
2017-04-29T00:36:46.094Z,73025
2017-04-29T00:36:56.183Z,73026
2017-04-29T00:37:05.985Z,73024
2017-04-29T00:37:16.076Z,73026
2017-04-29T00:37:25.914Z,73026
2017-04-29T00:37:36.005Z,73027
2017-04-29T00:37:46.100Z,73023
2017-04-29T00:37:55.906Z,73023
2017-04-29T00:38:05.999Z,73024
2017-04-29T00:38:15.805Z,73027
2017-04-29T00:38:25.902Z,73026
2017-04-29T00:38:35.994Z,73027
2017-04-29T00:38:45.796Z,73027
2017-04-29T00:38:55.893Z,73026
2017-04-29T00:39:05.982Z,73024
2017-04-29T00:39:16.074Z,73028
2017-04-29T00:39:26.159Z,73030
2017-04-29T00:39:35.966Z,73028
2017-04-29T00:39:46.059Z,73029
2017-04-29T00:39:56.149Z,73031
2017-04-29T00:40:05.952Z,73027
2017-04-29T00:40:16.040Z,73026
2017-04-29T00:40:25.551Z,73027
2017-04-29T00:40:35.644Z,73027
2017-04-29T00:40:45.446Z,73027
2017-04-29T00:40:55.535Z,73025
2017-04-29T00:41:05.625Z,73029
2017-04-29T00:41:15.720Z,73030
2017-04-29T00:41:25.809Z,73027
2017-04-29T00:41:35.897Z,73028
2017-04-29T00:41:45.989Z,73028
2017-04-29T00:41:56.085Z,73028
2017-04-29T00:42:06.180Z,73033
2017-04-29T00:42:15.983Z,73029
2017-04-29T00:42:26.078Z,73028
2017-04-29T00:42:36.162Z,73031
2017-04-29T00:42:46.259Z,73028
2017-04-29T00:42:56.348Z,73029
2017-04-29T00:43:06.438Z,73025
2017-04-29T00:43:16.531Z,73031
2017-04-29T00:43:26.335Z,73029
2017-04-29T00:43:36.434Z,73029
2017-04-29T00:43:46.529Z,73030
2017-04-29T00:43:56.619Z,73029
2017-04-29T00:44:06.709Z,73028
2017-04-29T00:44:16.511Z,73030
2017-04-29T00:44:25.736Z,73032
2017-04-29T00:44:35.825Z,73032
2017-04-29T00:44:45.912Z,73028
2017-04-29T00:44:56.004Z,73027
2017-04-29T00:45:06.100Z,73032
2017-04-29T00:45:15.608Z,73029
2017-04-29T00:45:25.414Z,73028
2017-04-29T00:45:35.501Z,73030
2017-04-29T00:45:45.590Z,73029
2017-04-29T00:45:55.683Z,73027
2017-04-29T00:46:05.484Z,73031
2017-04-29T00:46:14.721Z,73031
2017-04-29T00:46:24.523Z,73029
2017-04-29T00:46:34.612Z,73029
2017-04-29T00:46:44.414Z,73031
2017-04-29T00:46:54.506Z,73026
2017-04-29T00:47:04.603Z,73029
2017-04-29T00:47:14.692Z,73028
2017-04-29T00:47:24.789Z,73028
2017-04-29T00:47:34.883Z,73030
2017-04-29T00:47:44.974Z,73027
2017-04-29T00:47:54.775Z,73026
2017-04-29T00:48:04.872Z,73029
2017-04-29T00:48:14.673Z,73025
2017-04-29T00:48:24.188Z,73025
2017-04-29T00:48:33.990Z,73025
2017-04-29T00:48:43.804Z,73027
2017-04-29T00:48:53.896Z,73026
2017-04-29T00:49:03.705Z,73025
2017-04-29T00:49:13.803Z,73024
2017-04-29T00:49:23.654Z,73026
2017-04-29T00:49:33.773Z,73024
2017-04-29T00:49:43.875Z,73024
2017-04-29T00:49:53.970Z,73026
2017-04-29T00:50:03.776Z,73026
2017-04-29T00:50:13.579Z,73020
2017-04-29T00:50:23.375Z,73022
2017-04-29T00:50:33.465Z,73025
2017-04-29T00:50:43.554Z,73027
2017-04-29T00:50:53.638Z,73026
2017-04-29T00:51:03.726Z,73026
2017-04-29T00:51:13.524Z,73024
2017-04-29T00:51:23.329Z,73024
2017-04-29T00:51:33.423Z,73024
2017-04-29T00:51:43.514Z,73024
2017-04-29T00:51:53.637Z,73023
2017-04-29T00:52:03.736Z,73021
2017-04-29T00:52:13.541Z,73025
2017-04-29T00:52:23.630Z,73024
2017-04-29T00:52:33.756Z,73028
2017-04-29T00:52:43.847Z,73025
2017-04-29T00:52:53.943Z,73023
2017-04-29T00:53:03.744Z,73028
2017-04-29T00:53:13.544Z,73025
2017-04-29T00:53:23.641Z,73024
2017-04-29T00:53:33.728Z,73027
2017-04-29T00:53:43.826Z,73024
2017-04-29T00:53:53.915Z,73027
2017-04-29T00:54:03.731Z,73027
2017-04-29T00:54:13.819Z,73026
2017-04-29T00:54:23.908Z,73027
2017-04-29T00:54:34.004Z,73023
2017-04-29T00:54:44.094Z,73026
2017-04-29T00:54:53.894Z,73023
2017-04-29T00:55:03.699Z,73025
2017-04-29T00:55:12.929Z,73027
2017-04-29T00:55:22.737Z,73028
2017-04-29T00:55:32.825Z,73023
2017-04-29T00:55:42.911Z,73027
2017-04-29T00:55:53.003Z,73025
2017-04-29T00:56:03.088Z,73028
2017-04-29T00:56:12.885Z,73025
2017-04-29T00:56:22.972Z,73026
2017-04-29T00:56:32.775Z,73028
2017-04-29T00:56:42.866Z,73026
2017-04-29T00:56:52.955Z,73027
2017-04-29T00:57:03.040Z,73028
2017-04-29T00:57:13.125Z,73028
2017-04-29T00:57:22.930Z,73027
2017-04-29T00:57:33.024Z,73026
2017-04-29T00:57:43.125Z,73028
2017-04-29T00:57:53.223Z,73028
2017-04-29T00:58:03.317Z,73029
2017-04-29T00:58:12.838Z,73026
2017-04-29T00:58:22.645Z,73023
2017-04-29T00:58:32.740Z,73026
2017-04-29T00:58:42.874Z,73028
2017-04-29T00:58:52.967Z,73026
2017-04-29T00:59:02.773Z,73027
2017-04-29T00:59:12.583Z,73026
2017-04-29T00:59:22.392Z,73031
2017-04-29T00:59:32.207Z,73028
2017-04-29T00:59:42.301Z,73027
2017-04-29T00:59:52.394Z,73031
2017-04-29T01:00:02.500Z,73024
2017-04-29T01:00:12.590Z,73028
2017-04-29T01:00:22.395Z,73026
2017-04-29T01:00:32.487Z,73030
2017-04-29T01:00:42.580Z,73028
2017-04-29T01:00:52.665Z,73029
2017-04-29T01:01:02.471Z,73031
2017-04-29T01:01:12.268Z,73028
2017-04-29T01:01:22.359Z,73031
2017-04-29T01:01:32.455Z,73033
2017-04-29T01:01:42.553Z,73036
2017-04-29T01:01:52.652Z,73031
2017-04-29T01:02:02.458Z,73032
2017-04-29T01:02:12.548Z,73030
2017-04-29T01:02:22.358Z,73034
2017-04-29T01:02:32.451Z,73035
2017-04-29T01:02:41.972Z,73032
2017-04-29T01:02:52.065Z,73033
2017-04-29T01:03:01.889Z,73033
2017-04-29T01:03:11.708Z,73032
2017-04-29T01:03:21.522Z,73033
2017-04-29T01:03:31.043Z,73033
2017-04-29T01:03:41.137Z,73032
2017-04-29T01:03:50.943Z,73031
2017-04-29T01:04:01.043Z,73032
2017-04-29T01:04:10.854Z,73032
2017-04-29T01:04:20.656Z,73033
2017-04-29T01:04:30.224Z,73032
2017-04-29T01:04:40.325Z,73031
2017-04-29T01:04:50.415Z,73027
2017-04-29T01:05:00.511Z,73029
2017-04-29T01:05:10.316Z,73030
2017-04-29T01:05:19.829Z,73030
2017-04-29T01:05:29.918Z,73030
2017-04-29T01:05:40.014Z,73028
2017-04-29T01:05:50.098Z,73030
2017-04-29T01:06:00.193Z,73029
2017-04-29T01:06:09.990Z,73030
2017-04-29T01:06:20.076Z,73031
2017-04-29T01:06:30.161Z,73029
2017-04-29T01:06:40.249Z,73028
2017-04-29T01:06:50.355Z,73029
2017-04-29T01:07:00.443Z,73028
2017-04-29T01:07:10.248Z,73030
2017-04-29T01:07:20.345Z,73029
2017-04-29T01:07:30.153Z,73030
2017-04-29T01:07:39.965Z,73031
2017-04-29T01:07:50.063Z,73029
2017-04-29T01:08:00.157Z,73030
2017-04-29T01:08:10.247Z,73029
2017-04-29T01:08:20.336Z,73027
2017-04-29T01:08:30.438Z,73028
2017-04-29T01:08:40.527Z,73028
2017-04-29T01:08:50.623Z,73030
2017-04-29T01:09:00.720Z,73029
2017-04-29T01:09:10.851Z,73030
2017-04-29T01:09:20.653Z,73027
2017-04-29T01:09:30.748Z,73027
2017-04-29T01:09:40.848Z,73025
2017-04-29T01:09:50.939Z,73027
2017-04-29T01:10:01.034Z,73029
2017-04-29T01:10:10.546Z,73028
2017-04-29T01:10:19.772Z,73027
2017-04-29T01:10:29.571Z,73029
2017-04-29T01:10:39.662Z,73028
2017-04-29T01:10:49.751Z,73030
2017-04-29T01:10:59.553Z,73031
2017-04-29T01:11:09.370Z,73028
2017-04-29T01:11:19.462Z,73028
2017-04-29T01:11:29.313Z,73025
2017-04-29T01:11:39.120Z,73026
2017-04-29T01:11:48.927Z,73027
2017-04-29T01:11:59.017Z,73028
2017-04-29T01:12:08.535Z,73024
2017-04-29T01:12:18.629Z,73026
2017-04-29T01:12:28.155Z,73028
2017-04-29T01:12:38.249Z,73024
2017-04-29T01:12:48.346Z,73026
2017-04-29T01:12:58.159Z,73023
2017-04-29T01:13:08.253Z,73027
2017-04-29T01:13:18.346Z,73024
2017-04-29T01:13:28.438Z,73028
2017-04-29T01:13:38.254Z,73026
2017-04-29T01:13:48.345Z,73028
2017-04-29T01:13:58.434Z,73024
2017-04-29T01:14:08.242Z,73029
2017-04-29T01:14:18.375Z,73026
2017-04-29T01:14:28.480Z,73025
2017-04-29T01:14:38.571Z,73026
2017-04-29T01:14:48.663Z,73028
2017-04-29T01:14:58.467Z,73027
2017-04-29T01:15:08.274Z,73026
2017-04-29T01:15:18.377Z,73027
2017-04-29T01:15:28.462Z,73027
2017-04-29T01:15:38.554Z,73025
2017-04-29T01:15:48.649Z,73026
2017-04-29T01:15:58.448Z,73025
2017-04-29T01:16:07.968Z,73025
2017-04-29T01:16:18.060Z,73026
2017-04-29T01:16:28.156Z,73028
2017-04-29T01:16:38.250Z,73028
2017-04-29T01:16:48.340Z,73029
2017-04-29T01:16:58.146Z,73030
2017-04-29T01:17:07.952Z,73032
2017-04-29T01:17:17.470Z,73031
2017-04-29T01:17:27.573Z,73032
2017-04-29T01:17:37.662Z,73028
2017-04-29T01:17:47.759Z,73029
2017-04-29T01:17:57.860Z,73029
2017-04-29T01:18:07.949Z,73032
2017-04-29T01:18:17.464Z,73028
2017-04-29T01:18:27.305Z,73028
2017-04-29T01:18:36.820Z,73027
2017-04-29T01:18:46.911Z,73028
2017-04-29T01:18:57.007Z,73029
2017-04-29T01:19:07.105Z,73029
2017-04-29T01:19:17.195Z,73029
2017-04-29T01:19:27.287Z,73029
2017-04-29T01:19:37.380Z,73024
2017-04-29T01:19:47.477Z,73026
2017-04-29T01:19:57.572Z,73027
2017-04-29T01:20:07.670Z,73028
2017-04-29T01:20:16.904Z,73029
2017-04-29T01:20:26.995Z,73024
2017-04-29T01:20:36.803Z,73026
2017-04-29T01:20:46.610Z,73029
2017-04-29T01:20:56.413Z,73027
2017-04-29T01:21:06.517Z,73028
2017-04-29T01:21:16.319Z,73027
2017-04-29T01:21:26.411Z,73028
2017-04-29T01:21:36.504Z,73028
2017-04-29T01:21:46.598Z,73030
2017-04-29T01:21:56.693Z,73028
2017-04-29T01:22:06.506Z,73028
2017-04-29T01:22:16.308Z,73025
2017-04-29T01:22:26.120Z,73026
2017-04-29T01:22:35.919Z,73024
2017-04-29T01:22:46.011Z,73025
2017-04-29T01:22:55.815Z,73029
2017-04-29T01:23:05.900Z,73030
2017-04-29T01:23:16.007Z,73028
2017-04-29T01:23:26.102Z,73029
2017-04-29T01:23:36.204Z,73028
2017-04-29T01:23:46.305Z,73026
2017-04-29T01:23:56.396Z,73031
2017-04-29T01:24:06.209Z,73030
2017-04-29T01:24:16.025Z,73028
2017-04-29T01:24:26.118Z,73029
2017-04-29T01:24:35.923Z,73031
2017-04-29T01:24:46.020Z,73029
2017-04-29T01:24:56.113Z,73030
2017-04-29T01:25:06.203Z,73030
2017-04-29T01:25:16.005Z,73029
2017-04-29T01:25:26.102Z,73029
2017-04-29T01:25:36.191Z,73031
2017-04-29T01:25:46.023Z,73032
2017-04-29T01:25:56.122Z,73029
2017-04-29T01:26:06.213Z,73033
2017-04-29T01:26:16.016Z,73030
2017-04-29T01:26:26.153Z,73030
2017-04-29T01:26:36.245Z,73026
2017-04-29T01:26:46.341Z,73029
2017-04-29T01:26:56.443Z,73031
2017-04-29T01:27:05.986Z,73027
2017-04-29T01:27:15.498Z,73027
2017-04-29T01:27:25.592Z,73030
2017-04-29T01:27:35.681Z,73031
2017-04-29T01:27:45.487Z,73030
2017-04-29T01:27:55.587Z,73030
2017-04-29T01:28:05.690Z,73028
2017-04-29T01:28:15.492Z,73028
2017-04-29T01:28:25.586Z,73028
2017-04-29T01:28:35.683Z,73028
2017-04-29T01:28:45.784Z,73029
2017-04-29T01:28:55.297Z,73026
2017-04-29T01:29:05.385Z,73028
2017-04-29T01:29:14.918Z,73031
2017-04-29T01:29:24.751Z,73029
2017-04-29T01:29:34.888Z,73027
2017-04-29T01:29:44.978Z,73029
2017-04-29T01:29:55.105Z,73026
2017-04-29T01:30:05.203Z,73029
2017-04-29T01:30:15.289Z,73030
2017-04-29T01:30:25.092Z,73032
2017-04-29T01:30:35.180Z,73033
2017-04-29T01:30:44.699Z,73031
2017-04-29T01:30:54.794Z,73028
2017-04-29T01:31:04.882Z,73029
2017-04-29T01:31:14.979Z,73030
2017-04-29T01:31:25.066Z,73030
2017-04-29T01:31:35.160Z,73030
2017-04-29T01:31:45.253Z,73029
2017-04-29T01:31:55.055Z,73032
2017-04-29T01:32:05.143Z,73029
2017-04-29T01:32:14.947Z,73029
2017-04-29T01:32:24.468Z,73028
2017-04-29T01:32:34.560Z,73028
2017-04-29T01:32:44.660Z,73030
2017-04-29T01:32:54.759Z,73031
2017-04-29T01:33:04.848Z,73033
2017-04-29T01:33:14.361Z,73028
2017-04-29T01:33:24.162Z,73033
2017-04-29T01:33:34.261Z,73030
2017-04-29T01:33:44.347Z,73034
2017-04-29T01:33:54.447Z,73032
2017-04-29T01:34:04.545Z,73033
2017-04-29T01:34:14.635Z,73033
2017-04-29T01:34:24.724Z,73029
2017-04-29T01:34:34.817Z,73031
2017-04-29T01:34:44.340Z,73032
2017-04-29T01:34:54.143Z,73031
2017-04-29T01:35:04.230Z,73030
2017-04-29T01:35:14.320Z,73032
2017-04-29T01:35:24.121Z,73029
2017-04-29T01:35:33.920Z,73030
2017-04-29T01:35:43.728Z,73029
2017-04-29T01:35:53.534Z,73031
2017-04-29T01:36:03.634Z,73031
2017-04-29T01:36:13.428Z,73033
2017-04-29T01:36:23.231Z,73032
2017-04-29T01:36:33.332Z,73032
2017-04-29T01:36:43.422Z,73031
2017-04-29T01:36:53.516Z,73033
2017-04-29T01:37:03.614Z,73035
2017-04-29T01:37:13.127Z,73034
2017-04-29T01:37:22.923Z,73034
2017-04-29T01:37:32.727Z,73036
2017-04-29T01:37:42.821Z,73032
2017-04-29T01:37:52.912Z,73034
2017-04-29T01:38:03.002Z,73036
2017-04-29T01:38:12.807Z,73035
2017-04-29T01:38:22.898Z,73038
2017-04-29T01:38:32.417Z,73035
2017-04-29T01:38:42.505Z,73033
2017-04-29T01:38:52.022Z,73035
2017-04-29T01:39:02.113Z,73037
2017-04-29T01:39:12.201Z,73038
2017-04-29T01:39:22.011Z,73036
2017-04-29T01:39:32.106Z,73036
2017-04-29T01:39:42.194Z,73032
2017-04-29T01:39:52.283Z,73038
2017-04-29T01:40:02.387Z,73034
2017-04-29T01:40:12.192Z,73037
2017-04-29T01:40:21.703Z,73035
2017-04-29T01:40:31.222Z,73035
2017-04-29T01:40:41.318Z,73037
2017-04-29T01:40:51.412Z,73035
2017-04-29T01:41:01.210Z,73035
2017-04-29T01:41:11.016Z,73036
2017-04-29T01:41:20.815Z,73035
2017-04-29T01:41:30.904Z,73038
2017-04-29T01:41:41.003Z,73033
2017-04-29T01:41:51.091Z,73038
2017-04-29T01:42:00.907Z,73037
2017-04-29T01:42:10.424Z,73036
2017-04-29T01:42:20.230Z,73036
2017-04-29T01:42:30.316Z,73039
2017-04-29T01:42:40.120Z,73037
2017-04-29T01:42:50.222Z,73034
2017-04-29T01:43:00.024Z,73037
2017-04-29T01:43:10.118Z,73040
2017-04-29T01:43:19.923Z,73037
2017-04-29T01:43:30.019Z,73037
2017-04-29T01:43:40.111Z,73035
2017-04-29T01:43:49.918Z,73035
2017-04-29T01:44:00.029Z,73034
2017-04-29T01:44:10.121Z,73035
2017-04-29T01:44:20.208Z,73034
2017-04-29T01:44:30.026Z,73034
2017-04-29T01:44:39.841Z,73036
2017-04-29T01:44:49.932Z,73037
2017-04-29T01:45:00.028Z,73035
2017-04-29T01:45:10.119Z,73036
2017-04-29T01:45:19.929Z,73035
2017-04-29T01:45:30.018Z,73034
2017-04-29T01:45:40.105Z,73034
2017-04-29T01:45:50.200Z,73033
2017-04-29T01:46:00.293Z,73033
2017-04-29T01:46:10.383Z,73035
2017-04-29T01:46:20.228Z,73036
2017-04-29T01:46:29.745Z,73032
2017-04-29T01:46:39.550Z,73030
2017-04-29T01:46:49.641Z,73030
2017-04-29T01:46:59.727Z,73032
2017-04-29T01:47:09.820Z,73032
2017-04-29T01:47:19.619Z,73031
2017-04-29T01:47:29.748Z,73031
2017-04-29T01:47:39.552Z,73032
2017-04-29T01:47:49.653Z,73032
2017-04-29T01:47:59.464Z,73032
2017-04-29T01:48:09.563Z,73028
2017-04-29T01:48:19.662Z,73029
2017-04-29T01:48:29.179Z,73029
2017-04-29T01:48:39.276Z,73028
2017-04-29T01:48:49.370Z,73029
2017-04-29T01:48:59.464Z,73030
2017-04-29T01:49:09.556Z,73029
2017-04-29T01:49:19.650Z,73029
2017-04-29T01:49:29.746Z,73030
2017-04-29T01:49:39.833Z,73028
2017-04-29T01:49:49.921Z,73028
2017-04-29T01:50:00.015Z,73029
2017-04-29T01:50:09.827Z,73029
2017-04-29T01:50:19.917Z,73032
2017-04-29T01:50:30.010Z,73030
2017-04-29T01:50:40.099Z,73028
2017-04-29T01:50:50.183Z,73030
2017-04-29T01:51:00.274Z,73029
2017-04-29T01:51:10.367Z,73028
2017-04-29T01:51:19.880Z,73028
2017-04-29T01:51:29.977Z,73031
2017-04-29T01:51:39.790Z,73029
2017-04-29T01:51:49.880Z,73028
2017-04-29T01:51:59.968Z,73030
2017-04-29T01:52:10.058Z,73029
2017-04-29T01:52:20.145Z,73029
2017-04-29T01:52:29.949Z,73030
2017-04-29T01:52:40.049Z,73032
2017-04-29T01:52:50.144Z,73029
2017-04-29T01:53:00.276Z,73028
2017-04-29T01:53:10.373Z,73030
2017-04-29T01:53:19.886Z,73032
2017-04-29T01:53:29.977Z,73032
2017-04-29T01:53:40.075Z,73034
2017-04-29T01:53:50.174Z,73031
2017-04-29T01:54:00.271Z,73030
2017-04-29T01:54:10.076Z,73034
2017-04-29T01:54:20.170Z,73031
2017-04-29T01:54:29.970Z,73031
2017-04-29T01:54:39.771Z,73033
2017-04-29T01:54:49.859Z,73035
2017-04-29T01:54:59.665Z,73033
2017-04-29T01:55:09.468Z,73035
2017-04-29T01:55:19.593Z,73031
2017-04-29T01:55:29.105Z,73034
2017-04-29T01:55:39.194Z,73033
2017-04-29T01:55:49.288Z,73033
2017-04-29T01:55:59.382Z,73030
2017-04-29T01:56:09.471Z,73031
2017-04-29T01:56:19.564Z,73033
2017-04-29T01:56:29.650Z,73030
2017-04-29T01:56:39.742Z,73029
2017-04-29T01:56:49.834Z,73033
2017-04-29T01:56:59.923Z,73030
2017-04-29T01:57:10.014Z,73030
2017-04-29T01:57:20.108Z,73028
2017-04-29T01:57:30.196Z,73029
2017-04-29T01:57:40.282Z,73031
2017-04-29T01:57:50.087Z,73033
2017-04-29T01:58:00.224Z,73028
2017-04-29T01:58:10.315Z,73028
2017-04-29T01:58:19.836Z,73031
2017-04-29T01:58:29.647Z,73029
2017-04-29T01:58:39.741Z,73031
2017-04-29T01:58:49.838Z,73031
2017-04-29T01:58:59.644Z,73027
2017-04-29T01:59:09.447Z,73030
2017-04-29T01:59:19.543Z,73030
2017-04-29T01:59:29.347Z,73030
2017-04-29T01:59:39.447Z,73032
2017-04-29T01:59:49.535Z,73032
2017-04-29T01:59:59.630Z,73032
2017-04-29T02:00:09.430Z,73033
2017-04-29T02:00:19.228Z,73030
2017-04-29T02:00:29.317Z,73030
2017-04-29T02:00:39.408Z,73028
2017-04-29T02:00:49.495Z,73027
2017-04-29T02:00:59.298Z,73028
2017-04-29T02:01:09.106Z,73032
2017-04-29T02:01:19.192Z,73030
2017-04-29T02:01:29.282Z,73028
2017-04-29T02:01:39.369Z,73028
2017-04-29T02:01:49.464Z,73031
2017-04-29T02:01:59.556Z,73032
2017-04-29T02:02:09.364Z,73028
2017-04-29T02:02:18.882Z,73031
2017-04-29T02:02:28.972Z,73029
2017-04-29T02:02:38.784Z,73031
2017-04-29T02:02:48.891Z,73030
2017-04-29T02:02:58.702Z,73028
2017-04-29T02:03:08.218Z,73032
2017-04-29T02:03:18.312Z,73029
2017-04-29T02:03:28.411Z,73028
2017-04-29T02:03:38.259Z,73029
2017-04-29T02:03:48.354Z,73031
2017-04-29T02:03:58.447Z,73031
2017-04-29T02:04:08.571Z,73029
2017-04-29T02:04:18.388Z,73029
2017-04-29T02:04:28.486Z,73031
2017-04-29T02:04:38.577Z,73030
2017-04-29T02:04:48.669Z,73030
2017-04-29T02:04:58.766Z,73033
2017-04-29T02:05:07.993Z,73031
2017-04-29T02:05:18.087Z,73028
2017-04-29T02:05:28.177Z,73031
2017-04-29T02:05:37.977Z,73028
2017-04-29T02:05:47.781Z,73034
2017-04-29T02:05:57.866Z,73031
2017-04-29T02:06:07.667Z,73031
2017-04-29T02:06:17.486Z,73030
2017-04-29T02:06:27.575Z,73033
2017-04-29T02:06:37.664Z,73033
2017-04-29T02:06:47.757Z,73030
2017-04-29T02:06:57.853Z,73030
2017-04-29T02:07:07.945Z,73033
2017-04-29T02:07:17.470Z,73028
2017-04-29T02:07:27.556Z,73031
2017-04-29T02:07:37.650Z,73031
2017-04-29T02:07:47.739Z,73030
2017-04-29T02:07:57.549Z,73031
2017-04-29T02:08:07.359Z,73028
2017-04-29T02:08:17.173Z,73030